Tropical Cyclones
[Index]
Main Index Home Page Stock Weather Photos Extreme Storms Discussion Storm News and Storm Chasing Reports Tropical Cyclones / Hurricanes / Typhoons Weather Data and Links Wild Fires / Bushfires Weather Observation Techniques Weather Picture Catalogue Tornado Pictures and Reports Stock Video Footage and DVDs for sale
Season 2004-2005 Tropical Cyclone GERARD Track Map
Season 2004-2005 Summaries (Operational Data): [AU] [SIO] [SPAC] [SH]
<<- Previous TC | 2004-2005 Season | Next TC ->>

click for intensity scale information  Lat/long Grid: Show Hide

 Date Labels: Show Hide

Operational Tropical Cyclone Data : JTWC Advisories

Name: GERARD
Number: 0514

28 Jan 2005 12:00 UTC to 05 Feb 2005 12:00 UTC

    date/time    lat    long     hPa   cat  kts
2005-01-28 12    6.8    74.2    1002         25          
2005-01-28 18    6.5    73.3    1002         20          
2005-01-29 06   11.2    74.3    1002         20          
2005-01-29 12   11.8    74.4    1002         20          
2005-01-30 00   12.5    71.0    1002         20          
2005-01-30 06   14.7    70.3    1001         25          
2005-01-30 12   15.7    69.3    1000         25          
2005-01-30 18   17.3    69.5     998         30          
2005-01-31 00   18.1    68.8     998         30          
2005-01-31 06   16.6    65.7    1000         25          
2005-01-31 12   16.6    65.2    1000         25          
2005-01-31 18   17.5    65.0    1000         25          
2005-02-01 00   17.6    64.9    1002         25          
2005-02-01 06   18.3    64.5    1002         25          
2005-02-01 12   18.7    64.6    1002         25          
2005-02-01 18   19.0    64.2    1002         25          
2005-02-02 00   19.6    64.1    1000         25          
2005-02-02 06   19.8    63.3    1002         25          
2005-02-02 12   20.0    62.7    1000         25          
2005-02-02 18   20.1    61.4    1000         25          
2005-02-03 00   20.3    60.6    1000         25          
2005-02-03 06   21.8    59.6     997         30          
2005-02-03 12   22.3    58.4     996         30          
2005-02-03 18   23.0    58.1     990    1    45          
2005-02-04 00   23.6    57.3     985    2    50          
2005-02-04 06   24.8    57.6     975    2    60          
2005-02-04 12   26.5    57.7     975    2    60          
2005-02-04 18   28.6    58.6     973    2    60          
2005-02-05 00   30.9    60.0     973    2    60          
2005-02-05 06   33.3    59.8     980    2    55          
2005-02-05 12   35.5    61.9     980    2    55          
Winds are 10-min average.

Tropical cyclone tracks developed by Michael Bath using operational warnings and advisories and Google Maps.


[Australian Severe Weather index] [Copyright Notice] [Email Contacts] [Search This Site] [Privacy Policy]
Document: tropical_cyclone_gerard.htm Updated: 28 May 2013